Time;durP1;ratioP1;P1;durP2;ratioP2;P2;SDS_P1;SDS_P2;PMS_P1;PMS_P2;Temp;Humidity;BMP_temperature;BMP_pressure;BME280_temperature;BME280_humidity;BME280_pressure;Samples;Min_cycle;Max_cycle;Signal;HPM_P1;HPM_P2
2022/12/16 00:02:18;;;;;;;38.30;23.88;;;-0.40;99.90;;;;;;5011631;28;20054;-74
2022/12/16 00:04:44;;;;;;;39.13;22.88;;;-0.40;99.90;;;;;;5012163;28;20081;-73
2022/12/16 00:07:10;;;;;;;40.58;22.25;;;-0.40;99.90;;;;;;4994418;28;20144;-72
2022/12/16 00:09:35;;;;;;;38.60;23.52;;;-0.40;99.90;;;;;;5011663;28;20056;-73
2022/12/16 00:12:01;;;;;;;40.63;23.08;;;-0.40;99.90;;;;;;5011406;28;20132;-73
2022/12/16 00:14:28;;;;;;;38.20;22.13;;;-0.40;99.90;;;;;;4994485;28;20046;-75
2022/12/16 00:16:53;;;;;;;35.45;22.23;;;-0.40;99.90;;;;;;5011367;28;20116;-73
2022/12/16 00:19:19;;;;;;;37.72;22.35;;;-0.40;99.90;;;;;;4977342;28;20129;-72
2022/12/16 00:21:44;;;;;;;38.67;22.65;;;-0.40;99.90;;;;;;5011549;28;20053;-72
2022/12/16 00:24:10;;;;;;;35.92;21.35;;;-0.50;99.90;;;;;;4992970;28;20049;-72
2022/12/16 00:26:36;;;;;;;34.67;22.08;;;-0.50;99.90;;;;;;5011389;28;20053;-72
2022/12/16 00:29:04;;;;;;;35.85;21.80;;;-0.50;99.90;;;;;;5011418;28;20712;-72
2022/12/16 00:31:30;;;;;;;37.50;21.13;;;-0.50;99.90;;;;;;5011289;28;20050;-75
2022/12/16 00:33:56;;;;;;;37.13;22.80;;;-0.50;99.90;;;;;;4976258;28;20065;-72
2022/12/16 00:36:22;;;;;;;38.38;21.25;;;-0.50;99.90;;;;;;5011778;28;20053;-74
2022/12/16 00:38:48;;;;;;;36.55;21.48;;;-0.50;99.90;;;;;;4993264;28;20062;-73
2022/12/16 00:41:13;;;;;;;36.50;22.23;;;-0.50;99.90;;;;;;4993390;28;20137;-73
2022/12/16 00:43:39;;;;;;;33.95;20.70;;;-0.50;99.90;;;;;;4992712;28;20098;-73
2022/12/16 00:46:04;;;;;;;32.85;19.58;;;-0.50;99.90;;;;;;5010737;28;20485;-73
2022/12/16 00:48:30;;;;;;;40.42;21.33;;;-0.50;99.90;;;;;;4993256;28;20128;-73
2022/12/16 00:50:56;;;;;;;30.83;19.45;;;-0.50;99.90;;;;;;5010881;28;20168;-73
2022/12/16 00:53:23;;;;;;;29.95;17.52;;;-0.50;99.90;;;;;;4992328;28;20500;-73
2022/12/16 00:55:49;;;;;;;29.17;17.33;;;-0.60;99.90;;;;;;5010831;28;20107;-73
2022/12/16 00:58:15;;;;;;;25.45;14.77;;;-0.60;99.90;;;;;;5010820;28;20038;-72
2022/12/16 01:00:41;;;;;;;26.27;14.50;;;-0.60;99.90;;;;;;5010072;28;20060;-72
2022/12/16 01:03:07;;;;;;;26.35;14.70;;;-0.60;99.90;;;;;;5010510;28;20057;-75
2022/12/16 01:05:33;;;;;;;27.67;14.10;;;-0.60;99.90;;;;;;5010280;28;20081;-72
2022/12/16 01:07:58;;;;;;;25.42;14.65;;;-0.60;99.90;;;;;;5010016;28;20464;-73
2022/12/16 01:10:24;;;;;;;20.30;12.45;;;-0.60;99.90;;;;;;4992777;28;20561;-73
2022/12/16 01:12:50;;;;;;;21.83;12.00;;;-0.70;99.90;;;;;;4992554;28;20440;-73
2022/12/16 01:15:17;;;;;;;18.48;9.98;;;-0.70;99.90;;;;;;4992929;28;20060;-73
2022/12/16 01:17:43;;;;;;;20.05;8.90;;;-0.70;99.90;;;;;;5010469;28;20499;-73
2022/12/16 01:20:09;;;;;;;14.95;8.15;;;-0.70;99.90;;;;;;4992780;28;20057;-78
2022/12/16 01:22:35;;;;;;;12.18;7.22;;;-0.70;99.90;;;;;;5009975;28;20052;-73
2022/12/16 01:25:01;;;;;;;13.20;7.18;;;-0.80;99.90;;;;;;4992496;28;20042;-73
2022/12/16 01:27:28;;;;;;;12.32;6.25;;;-0.80;99.90;;;;;;5010227;28;20050;-78
2022/12/16 01:29:54;;;;;;;16.55;6.22;;;-0.80;99.90;;;;;;4992249;28;20068;-74
2022/12/16 01:32:20;;;;;;;11.77;5.13;;;-0.80;99.90;;;;;;5009701;28;20051;-73
2022/12/16 01:34:53;;;;;;;12.23;5.40;;;-0.80;99.90;;;;;;5009889;28;20060;-73
2022/12/16 01:37:19;;;;;;;11.95;4.90;;;-0.70;99.90;;;;;;5010344;28;20267;-80
2022/12/16 01:39:45;;;;;;;11.45;4.60;;;-0.70;99.90;;;;;;5009880;28;20536;-74
2022/12/16 01:42:15;;;;;;;10.52;5.22;;;-0.70;99.90;;;;;;5010082;28;20041;-73
2022/12/16 01:44:46;;;;;;;12.60;5.20;;;-0.70;99.90;;;;;;5009586;28;20044;-73
2022/12/16 01:47:32;;;;;;;9.88;3.92;;;-0.60;99.90;;;;;;5009888;28;20493;-73
2022/12/16 01:50:07;;;;;;;15.73;4.97;;;-0.60;99.90;;;;;;5010046;28;20050;-73
2022/12/16 01:52:37;;;;;;;14.45;4.80;;;-0.60;99.90;;;;;;5010094;28;20041;-72
2022/12/16 01:55:11;;;;;;;9.18;4.43;;;-0.50;99.90;;;;;;5009190;28;20104;-72
2022/12/16 01:57:43;;;;;;;7.55;4.60;;;-0.50;99.90;;;;;;5009918;28;20444;-76
2022/12/16 02:00:09;;;;;;;8.93;4.65;;;-0.50;99.90;;;;;;5010055;28;20046;-72
2022/12/16 02:02:35;;;;;;;10.20;4.47;;;-0.50;99.90;;;;;;4992009;28;20096;-72
2022/12/16 02:05:23;;;;;;;14.35;4.75;;;-0.40;99.90;;;;;;5011635;28;20126;-75
2022/12/16 02:08:05;;;;;;;12.43;4.60;;;-0.40;99.90;;;;;;5013397;28;20049;-73
2022/12/16 02:10:41;;;;;;;10.73;5.07;;;-0.40;99.90;;;;;;4994164;28;20049;-73
2022/12/16 02:13:36;;;;;;;14.25;4.68;;;-0.40;99.90;;;;;;4996321;28;20054;-72
2022/12/16 02:16:17;;;;;;;;;;;-0.40;99.90;;;;;;4994877;28;20077;-72
2022/12/16 02:19:13;;;;;;;14.85;4.60;;;-0.30;99.90;;;;;;4996074;28;20427;-73
2022/12/16 02:21:56;;;;;;;9.45;4.32;;;-0.30;99.90;;;;;;4994263;28;20158;-72
2022/12/16 02:24:39;;;;;;;9.80;4.43;;;-0.30;99.90;;;;;;5013711;28;20049;-73
2022/12/16 02:27:30;;;;;;;10.27;5.40;;;-0.30;99.90;;;;;;5013482;28;20623;-73
2022/12/16 02:30:22;;;;;;;10.52;4.47;;;-0.20;99.90;;;;;;5012452;28;20050;-73
2022/12/16 02:32:59;;;;;;;13.73;4.88;;;-0.20;99.90;;;;;;4957267;28;20101;-73
2022/12/16 02:35:43;;;;;;;11.77;4.57;;;-0.10;99.90;;;;;;4956989;28;20051;-73
2022/12/16 02:38:20;;;;;;;12.20;4.88;;;-0.10;99.90;;;;;;4956876;28;20105;-76
2022/12/16 02:41:31;;;;;;;12.32;5.03;;;-0.10;99.90;;;;;;4977841;28;20068;-73
2022/12/16 02:44:08;;;;;;;10.98;4.85;;;0.00;99.90;;;;;;4993846;28;20050;-74
2022/12/16 02:46:40;;;;;;;12.35;5.07;;;0.00;99.90;;;;;;4994211;28;20046;-73
2022/12/16 02:49:08;;;;;;;17.30;5.30;;;0.10;99.90;;;;;;4977166;28;20042;-73
2022/12/16 02:51:37;;;;;;;9.40;5.35;;;0.10;99.90;;;;;;4993708;28;20054;-78
2022/12/16 02:54:05;;;;;;;12.15;5.22;;;0.10;99.90;;;;;;4992490;28;20805;-73
2022/12/16 02:56:34;;;;;;;11.80;5.70;;;0.10;99.90;;;;;;4993198;28;20047;-73
2022/12/16 02:59:08;;;;;;;12.75;5.35;;;0.20;99.90;;;;;;4994235;28;20050;-73
2022/12/16 03:01:45;;;;;;;13.57;5.65;;;0.20;99.90;;;;;;5003736;28;20386;-72
2022/12/16 03:04:17;;;;;;;10.43;5.03;;;0.20;99.90;;;;;;4980132;28;20091;-73
2022/12/16 03:06:46;;;;;;;11.13;5.85;;;0.30;99.90;;;;;;4993517;28;20050;-73
2022/12/16 03:09:17;;;;;;;10.07;5.53;;;0.30;99.90;;;;;;4972473;28;20058;-75
2022/12/16 03:11:45;;;;;;;14.05;5.15;;;0.30;99.90;;;;;;4983075;28;20046;-72
2022/12/16 03:14:15;;;;;;;12.70;5.38;;;0.30;99.90;;;;;;4975322;28;20498;-73
2022/12/16 03:16:43;;;;;;;12.10;5.53;;;0.30;99.90;;;;;;4975625;28;20101;-72
2022/12/16 03:19:10;;;;;;;11.52;5.88;;;0.30;99.90;;;;;;4990423;28;20054;-73
2022/12/16 03:21:59;;;;;;;12.57;5.55;;;0.30;99.90;;;;;;4993798;28;20084;-74
2022/12/16 03:24:25;;;;;;;11.98;5.72;;;0.30;99.90;;;;;;4993067;28;20082;-73
2022/12/16 03:27:25;;;;;;;10.50;5.60;;;0.30;99.90;;;;;;4976420;28;20477;-78
2022/12/16 03:30:01;;;;;;;15.38;5.32;;;0.30;99.90;;;;;;4999432;28;20125;-74
2022/12/16 03:32:32;;;;;;;10.65;5.15;;;0.30;99.90;;;;;;4987678;28;20410;-72
2022/12/16 03:35:21;;;;;;;13.25;4.75;;;0.30;99.90;;;;;;5008129;28;20077;-81
2022/12/16 03:37:50;;;;;;;12.93;5.05;;;0.30;99.90;;;;;;5010620;28;20062;-74
2022/12/16 03:40:16;;;;;;;11.15;5.28;;;0.30;99.90;;;;;;5011842;28;20050;-74
2022/12/16 03:42:43;;;;;;;10.45;5.03;;;0.30;99.90;;;;;;5002110;28;20402;-75
2022/12/16 03:45:15;;;;;;;11.00;5.22;;;0.30;99.90;;;;;;4974663;28;20121;-75
2022/12/16 03:47:41;;;;;;;11.65;5.20;;;0.30;99.90;;;;;;4974693;28;20038;-74
2022/12/16 03:50:08;;;;;;;8.82;5.05;;;0.30;99.90;;;;;;4991402;28;20050;-78
2022/12/16 03:52:34;;;;;;;11.52;5.20;;;0.30;99.90;;;;;;4996876;28;20423;-74
2022/12/16 03:55:00;;;;;;;12.52;5.07;;;0.30;99.90;;;;;;4982991;28;20065;-74
2022/12/16 03:57:26;;;;;;;13.18;5.13;;;0.30;99.90;;;;;;5011741;28;20054;-73
2022/12/16 03:59:51;;;;;;;12.77;5.15;;;0.30;99.90;;;;;;5007377;28;20053;-75
2022/12/16 04:02:17;;;;;;;13.70;5.13;;;0.30;99.90;;;;;;4992114;28;20413;-73
2022/12/16 04:04:43;;;;;;;15.82;6.22;;;0.30;99.90;;;;;;4991781;28;20402;-75
2022/12/16 04:07:20;;;;;;;13.82;7.25;;;0.30;99.90;;;;;;4992273;28;20160;-74
2022/12/16 04:09:49;;;;;;;16.90;7.82;;;0.40;99.90;;;;;;4974961;28;20054;-76
2022/12/16 04:26:01;;;;;;;29.77;17.25;;;0.50;99.90;;;;;;4973355;28;20066;-74
2022/12/16 04:28:27;;;;;;;35.95;19.35;;;0.60;99.90;;;;;;4991792;28;20065;-75
2022/12/16 04:30:53;;;;;;;39.45;22.05;;;0.60;99.90;;;;;;4991596;28;20102;-76
